Time;durP1;ratioP1;P1;durP2;ratioP2;P2;SDS_P1;SDS_P2;PMS_P1;PMS_P2;Temp;Humidity;BMP_temperature;BMP_pressure;BME280_temperature;BME280_humidity;BME280_pressure;Samples;Min_cycle;Max_cycle;Signal;HPM_P1;HPM_P2
2023/08/22 04:02:55;;;;;;;2.73;2.50;;;25.10;74.50;;;;;;4920375;23;20474;-71
2023/08/22 04:05:22;;;;;;;2.60;2.07;;;25.10;74.90;;;;;;4919663;29;20520;-71
2023/08/22 04:07:49;;;;;;;3.70;2.73;;;25.00;75.20;;;;;;4919616;29;20504;-71
2023/08/22 04:10:16;;;;;;;3.70;2.40;;;25.00;75.30;;;;;;4919563;29;20452;-72
2023/08/22 04:12:42;;;;;;;3.23;2.33;;;25.00;75.40;;;;;;4919163;29;21043;-72
2023/08/22 04:15:11;;;;;;;2.70;2.40;;;25.00;75.60;;;;;;4918909;29;20448;-71
2023/08/22 04:17:41;;;;;;;3.03;2.43;;;24.80;76.20;;;;;;4919495;29;20449;-71
2023/08/22 04:20:11;;;;;;;3.00;2.60;;;24.80;76.30;;;;;;4919427;29;20453;-71
2023/08/22 04:22:39;;;;;;;3.40;2.47;;;24.70;76.50;;;;;;4919339;29;20476;-71
2023/08/22 04:25:07;;;;;;;3.40;3.10;;;24.60;77.00;;;;;;4919323;29;20459;-71
2023/08/22 04:27:34;;;;;;;4.67;2.63;;;24.60;76.90;;;;;;4919207;29;20493;-71
2023/08/22 04:30:01;;;;;;;3.10;2.70;;;24.70;76.80;;;;;;4919231;29;20485;-71
2023/08/22 04:32:28;;;;;;;3.60;2.80;;;24.70;76.80;;;;;;4918786;29;20898;-71
2023/08/22 04:34:54;;;;;;;2.87;2.57;;;24.60;77.10;;;;;;4919159;29;20862;-71
2023/08/22 04:37:23;;;;;;;3.60;2.50;;;24.70;77.20;;;;;;4919065;29;20986;-71
2023/08/22 04:39:49;;;;;;;3.73;2.40;;;24.70;77.20;;;;;;4919136;29;20793;-70
2023/08/22 04:42:16;;;;;;;4.90;3.30;;;24.60;77.60;;;;;;4918937;29;20814;-71
2023/08/22 04:44:43;;;;;;;2.93;2.63;;;24.50;77.70;;;;;;4918970;29;20890;-71
2023/08/22 04:47:10;;;;;;;3.50;3.13;;;24.50;78.10;;;;;;4918823;29;20480;-71
2023/08/22 04:49:36;;;;;;;3.13;2.80;;;24.40;78.20;;;;;;4918844;29;20485;-71
2023/08/22 04:52:03;;;;;;;3.57;3.07;;;24.40;78.30;;;;;;4918769;29;20465;-71
2023/08/22 04:54:31;;;;;;;3.13;2.60;;;24.50;78.20;;;;;;4918776;29;20472;-71
2023/08/22 04:56:58;;;;;;;3.30;3.00;;;24.60;78.10;;;;;;4918733;29;20452;-71
2023/08/22 04:59:25;;;;;;;3.20;2.90;;;24.70;77.90;;;;;;4918759;29;20453;-71
2023/08/22 05:01:51;;;;;;;3.20;2.90;;;24.80;77.70;;;;;;4918225;29;20492;-71
2023/08/22 05:04:18;;;;;;;3.50;3.13;;;24.90;77.40;;;;;;4918557;29;20452;-72
2023/08/22 05:06:46;;;;;;;3.57;2.83;;;25.00;77.10;;;;;;4918482;29;20488;-71
2023/08/22 05:09:14;;;;;;;4.40;2.97;;;25.10;77.00;;;;;;4918167;29;20949;-71
2023/08/22 05:11:42;;;;;;;3.73;2.90;;;25.20;76.80;;;;;;4918366;29;20504;-71
2023/08/22 05:14:09;;;;;;;3.40;3.10;;;25.30;76.60;;;;;;4918444;29;20448;-71
2023/08/22 05:16:35;;;;;;;3.40;3.10;;;25.30;76.60;;;;;;4918319;29;20488;-72
2023/08/22 05:19:03;;;;;;;3.20;2.90;;;25.40;76.50;;;;;;4918038;29;20946;-71
2023/08/22 05:21:29;;;;;;;2.67;2.20;;;25.50;76.40;;;;;;4918168;29;20568;-71
2023/08/22 05:23:56;;;;;;;3.40;3.10;;;25.60;76.00;;;;;;4918200;29;20452;-71
2023/08/22 05:26:23;;;;;;;4.67;2.67;;;25.70;75.90;;;;;;4917966;29;20484;-71
2023/08/22 05:28:51;;;;;;;3.90;3.00;;;25.80;75.70;;;;;;4918152;29;20445;-71
2023/08/22 05:31:21;;;;;;;3.67;3.30;;;26.00;75.70;;;;;;4918050;29;20469;-71
2023/08/22 05:33:47;;;;;;;3.10;2.73;;;26.10;75.50;;;;;;4918045;29;20453;-71
2023/08/22 05:36:14;;;;;;;2.47;2.27;;;26.30;75.20;;;;;;4918056;29;20460;-71
2023/08/22 05:38:41;;;;;;;3.00;2.50;;;26.40;74.90;;;;;;4917789;29;20508;-72
2023/08/22 05:41:08;;;;;;;3.60;3.20;;;26.60;74.70;;;;;;4917970;29;20532;-71
2023/08/22 05:43:35;;;;;;;2.70;2.50;;;26.70;74.00;;;;;;4918300;29;20492;-72
2023/08/22 05:46:03;;;;;;;3.47;2.80;;;26.80;73.80;;;;;;4917824;29;20480;-72
2023/08/22 05:48:30;;;;;;;3.57;3.13;;;26.60;74.50;;;;;;4917935;29;20500;-72
2023/08/22 05:50:57;;;;;;;4.20;3.03;;;26.40;75.60;;;;;;4917757;29;20464;-72
2023/08/22 05:53:24;;;;;;;3.30;2.80;;;26.10;76.20;;;;;;4917743;29;20456;-71
2023/08/22 05:55:51;;;;;;;3.07;2.77;;;26.20;76.50;;;;;;4917680;29;20445;-72
2023/08/22 05:58:17;;;;;;;3.30;3.00;;;26.40;75.40;;;;;;4917693;29;20452;-71
2023/08/22 06:00:44;;;;;;;4.07;3.37;;;26.70;74.10;;;;;;4917182;29;20468;-71
2023/08/22 06:03:12;;;;;;;3.07;2.40;;;26.90;73.30;;;;;;4917617;29;20437;-70
2023/08/22 06:05:39;;;;;;;2.70;2.50;;;27.10;72.70;;;;;;4917569;29;20453;-70
2023/08/22 06:08:06;;;;;;;4.60;2.80;;;27.40;72.40;;;;;;4917469;29;20865;-70
2023/08/22 06:10:33;;;;;;;3.40;3.10;;;27.60;71.80;;;;;;4917291;29;20489;-71
2023/08/22 06:12:59;;;;;;;2.93;2.63;;;27.80;70.80;;;;;;4918516;29;20452;-69
2023/08/22 06:15:26;;;;;;;3.20;2.70;;;27.80;70.60;;;;;;4917432;29;20445;-70
2023/08/22 06:17:53;;;;;;;3.63;3.33;;;27.90;70.10;;;;;;4917395;29;20525;-71
2023/08/22 06:20:21;;;;;;;3.37;2.73;;;28.10;69.80;;;;;;4917353;29;20507;-72
2023/08/22 06:22:47;;;;;;;2.60;2.20;;;28.30;69.10;;;;;;4917385;29;20503;-71
2023/08/22 06:25:14;;;;;;;2.60;2.40;;;28.30;68.90;;;;;;4917245;29;20452;-71
2023/08/22 06:27:41;;;;;;;3.47;2.40;;;28.40;68.40;;;;;;4917155;29;20856;-71
2023/08/22 06:30:11;;;;;;;2.83;2.30;;;28.50;68.00;;;;;;4917210;29;20461;-71
2023/08/22 06:32:37;;;;;;;2.70;2.17;;;28.50;67.80;;;;;;4917083;29;20469;-71
2023/08/22 06:35:05;;;;;;;3.00;2.63;;;28.10;68.90;;;;;;4917150;29;20452;-71
2023/08/22 06:37:33;;;;;;;2.60;2.40;;;27.90;69.70;;;;;;4916583;29;20445;-71
2023/08/22 06:40:00;;;;;;;2.70;2.50;;;28.20;69.40;;;;;;4916913;29;20452;-71
2023/08/22 06:42:26;;;;;;;2.60;2.40;;;28.50;67.70;;;;;;4916992;29;20468;-71
2023/08/22 06:44:53;;;;;;;2.83;2.53;;;28.60;69.30;;;;;;4917058;29;20453;-71
2023/08/22 06:47:19;;;;;;;3.10;2.53;;;28.50;69.20;;;;;;4917036;29;20484;-72
2023/08/22 06:49:46;;;;;;;4.17;2.57;;;28.30;69.00;;;;;;4917078;29;20445;-71
2023/08/22 06:52:13;;;;;;;4.90;3.03;;;28.60;68.50;;;;;;4917193;29;20465;-71
2023/08/22 06:54:41;;;;;;;3.93;2.30;;;28.90;67.30;;;;;;4916920;29;20456;-72
2023/08/22 06:57:08;;;;;;;2.37;1.87;;;29.20;66.30;;;;;;4916937;29;20457;-72
2023/08/22 06:59:35;;;;;;;2.87;2.40;;;29.50;65.30;;;;;;4916899;29;20528;-71
2023/08/22 07:02:03;;;;;;;2.53;1.97;;;29.50;66.00;;;;;;4916710;29;20495;-71
2023/08/22 07:04:31;;;;;;;2.60;2.10;;;29.80;64.30;;;;;;4917185;29;20461;-73
2023/08/22 07:06:58;;;;;;;2.90;2.60;;;29.60;65.00;;;;;;4916719;29;20493;-71
2023/08/22 07:09:25;;;;;;;2.50;2.00;;;29.80;65.10;;;;;;4916901;29;20455;-71
2023/08/22 07:11:53;;;;;;;2.60;2.17;;;29.90;65.80;;;;;;4916748;29;20476;-72
2023/08/22 07:14:20;;;;;;;2.30;2.10;;;29.70;66.30;;;;;;4916856;29;20524;-72
2023/08/22 07:16:46;;;;;;;2.40;2.20;;;29.50;66.40;;;;;;4916754;29;20449;-72
2023/08/22 07:19:13;;;;;;;3.20;2.67;;;29.60;67.80;;;;;;4917607;29;20456;-72
2023/08/22 07:21:40;;;;;;;2.93;2.00;;;29.80;66.40;;;;;;4916672;29;20472;-71
2023/08/22 07:24:06;;;;;;;2.90;2.53;;;29.90;66.50;;;;;;4916591;29;20943;-72
2023/08/22 07:26:33;;;;;;;2.73;2.00;;;30.20;65.90;;;;;;4916592;29;20488;-72
2023/08/22 07:29:01;;;;;;;3.63;2.70;;;30.50;65.20;;;;;;4916786;29;20453;-71
2023/08/22 07:31:28;;;;;;;2.97;2.67;;;30.70;65.10;;;;;;4917161;29;20468;-71
2023/08/22 07:33:54;;;;;;;3.07;2.43;;;31.00;64.00;;;;;;4916551;29;20485;-70
2023/08/22 07:36:21;;;;;;;3.20;2.30;;;31.20;62.90;;;;;;4916628;29;20455;-71
2023/08/22 07:38:58;;;;;;;2.80;2.37;;;31.50;63.30;;;;;;4916593;29;20453;-70
2023/08/22 07:41:24;;;;;;;3.30;2.40;;;31.70;62.00;;;;;;4916551;29;20476;-71
2023/08/22 07:43:51;;;;;;;3.37;2.40;;;31.30;63.10;;;;;;4916495;29;20453;-71
2023/08/22 07:46:20;;;;;;;2.40;2.20;;;31.20;63.50;;;;;;4916497;29;20475;-71
2023/08/22 07:48:46;;;;;;;2.73;1.90;;;31.40;63.90;;;;;;4916451;29;20540;-71
2023/08/22 07:51:13;;;;;;;4.50;2.80;;;31.70;63.00;;;;;;4918746;29;20461;-71
2023/08/22 07:53:40;;;;;;;3.13;2.13;;;32.10;62.60;;;;;;4919879;29;20504;-71
2023/08/22 07:56:07;;;;;;;3.33;2.00;;;32.20;62.80;;;;;;4919794;29;20476;-71
2023/08/22 07:58:34;;;;;;;2.97;2.23;;;32.10;60.90;;;;;;4919821;29;20480;-71
2023/08/22 08:01:05;;;;;;;2.40;1.80;;;32.30;60.00;;;;;;4919532;29;20484;-71
2023/08/22 08:03:33;;;;;;;2.87;1.60;;;32.40;61.10;;;;;;4919880;29;20441;-71
2023/08/22 08:06:00;;;;;;;3.73;2.20;;;32.30;60.50;;;;;;4919857;29;20445;-71
2023/08/22 08:08:27;;;;;;;2.53;1.80;;;32.10;63.10;;;;;;4919220;29;20487;-71
2023/08/22 08:10:54;;;;;;;2.47;2.27;;;32.30;59.80;;;;;;4919446;29;20475;-71
2023/08/22 08:13:20;;;;;;;2.30;2.10;;;32.30;61.20;;;;;;4919515;29;20451;-71
2023/08/22 08:15:47;;;;;;;2.57;2.30;;;32.30;61.30;;;;;;4919385;29;20445;-71
2023/08/22 08:18:15;;;;;;;2.53;2.00;;;31.90;61.60;;;;;;4919398;29;20539;-71
2023/08/22 08:20:44;;;;;;;2.40;1.90;;;31.80;62.10;;;;;;4919124;29;20464;-73
2023/08/22 08:23:11;;;;;;;3.30;1.70;;;31.80;61.60;;;;;;4919536;29;21014;-71
2023/08/22 08:25:38;;;;;;;2.23;2.03;;;31.70;62.10;;;;;;4919617;29;20535;-71
2023/08/22 08:28:05;;;;;;;2.70;2.10;;;31.60;63.10;;;;;;4919031;29;20480;-71
2023/08/22 08:30:32;;;;;;;2.83;1.90;;;31.30;62.60;;;;;;4918857;29;21026;-71
2023/08/22 08:32:59;;;;;;;2.23;1.37;;;31.10;62.10;;;;;;4918772;29;20877;-71
2023/08/22 08:35:25;;;;;;;2.30;1.83;;;30.80;61.80;;;;;;4918861;29;20943;-71
2023/08/22 08:37:53;;;;;;;1.97;1.53;;;30.80;63.20;;;;;;4918799;29;20934;-71
2023/08/22 08:40:20;;;;;;;3.70;1.80;;;31.10;62.00;;;;;;4919299;29;20444;-71
2023/08/22 08:42:47;;;;;;;3.83;2.30;;;31.40;62.00;;;;;;4919102;29;20828;-71
2023/08/22 08:45:15;;;;;;;2.93;1.93;;;31.30;61.70;;;;;;4918936;29;20892;-71
2023/08/22 08:47:43;;;;;;;3.27;1.93;;;31.20;61.40;;;;;;4918484;29;20998;-71
2023/08/22 08:50:10;;;;;;;2.40;1.80;;;31.20;61.60;;;;;;4918601;29;20935;-72
2023/08/22 08:52:38;;;;;;;1.97;1.43;;;31.20;63.00;;;;;;4919349;29;20468;-71
2023/08/22 08:55:06;;;;;;;2.23;1.67;;;31.40;61.80;;;;;;4918783;29;20499;-71
2023/08/22 08:57:33;;;;;;;3.23;1.90;;;31.60;61.70;;;;;;4918770;29;20447;-71
2023/08/22 09:00:01;;;;;;;4.53;1.87;;;31.90;60.70;;;;;;4918815;29;20453;-70
2023/08/22 09:02:28;;;;;;;2.00;1.50;;;32.00;60.20;;;;;;4918595;29;20476;-71
2023/08/22 09:04:55;;;;;;;2.40;1.60;;;32.20;60.40;;;;;;4919034;29;20452;-71
2023/08/22 09:07:22;;;;;;;2.07;1.57;;;32.20;59.30;;;;;;4918500;29;21027;-71
2023/08/22 09:09:49;;;;;;;3.03;2.30;;;32.20;60.60;;;;;;4918421;29;20841;-71
2023/08/22 09:12:17;;;;;;;2.40;1.50;;;32.00;61.00;;;;;;4918548;29;20477;-71
2023/08/22 09:14:46;;;;;;;2.97;1.50;;;32.10;60.20;;;;;;4918563;29;20452;-72
2023/08/22 09:17:14;;;;;;;2.10;1.70;;;32.20;59.90;;;;;;4918326;29;20451;-72
2023/08/22 09:19:41;;;;;;;2.27;1.57;;;32.20;58.80;;;;;;4918371;29;20476;-71
2023/08/22 09:22:08;;;;;;;2.30;1.80;;;32.00;60.90;;;;;;4918133;29;20982;-71
2023/08/22 09:24:35;;;;;;;2.60;1.73;;;31.90;59.70;;;;;;4918363;29;20452;-71
2023/08/22 09:27:02;;;;;;;2.03;1.50;;;31.90;61.10;;;;;;4918028;29;20483;-71
2023/08/22 09:29:33;;;;;;;3.10;1.70;;;31.80;60.70;;;;;;4918151;29;20444;-71
2023/08/22 09:32:05;;;;;;;3.10;1.93;;;31.80;60.10;;;;;;4918093;29;20464;-71
2023/08/22 09:34:33;;;;;;;2.77;2.40;;;31.80;60.50;;;;;;4917692;29;20906;-71
2023/08/22 09:37:00;;;;;;;2.53;1.80;;;31.80;59.80;;;;;;4918080;29;20448;-71
2023/08/22 09:39:29;;;;;;;2.23;1.97;;;32.00;60.60;;;;;;4917974;29;20504;-71
2023/08/22 09:41:58;;;;;;;2.00;1.60;;;32.30;59.60;;;;;;4917882;29;20521;-70
2023/08/22 09:44:25;;;;;;;2.20;1.87;;;32.30;59.20;;;;;;4917846;29;20444;-71
2023/08/22 09:46:54;;;;;;;2.90;2.10;;;32.30;58.80;;;;;;4917923;29;20492;-71
2023/08/22 09:49:23;;;;;;;2.33;1.73;;;32.40;58.80;;;;;;4918727;29;20445;-72
2023/08/22 09:51:52;;;;;;;2.50;1.73;;;32.50;59.00;;;;;;4917922;29;20472;-71
2023/08/22 09:54:18;;;;;;;2.00;1.57;;;32.70;57.60;;;;;;4918057;29;20485;-70
2023/08/22 09:56:46;;;;;;;2.97;1.90;;;32.80;56.20;;;;;;4918227;29;20453;-72
2023/08/22 09:59:14;;;;;;;2.63;1.90;;;32.60;56.90;;;;;;4917787;29;20950;-72
2023/08/22 10:01:42;;;;;;;2.40;1.60;;;32.50;57.50;;;;;;4917322;29;20641;-72
2023/08/22 10:04:12;;;;;;;2.10;1.50;;;32.50;59.10;;;;;;4917528;29;20459;-70
2023/08/22 10:06:40;;;;;;;2.60;2.00;;;32.40;57.80;;;;;;4917241;29;20942;-71
2023/08/22 10:09:09;;;;;;;2.00;1.57;;;32.60;55.30;;;;;;4917428;29;20493;-70
2023/08/22 10:11:40;;;;;;;1.87;1.43;;;32.60;56.00;;;;;;4917741;29;20468;-71
2023/08/22 10:14:11;;;;;;;2.80;1.70;;;32.70;56.00;;;;;;4916940;29;20437;-71
2023/08/22 10:16:39;;;;;;;2.70;1.80;;;32.70;57.10;;;;;;4918046;29;20433;-70
2023/08/22 10:19:05;;;;;;;2.50;1.60;;;32.90;57.20;;;;;;4917452;29;20456;-71
2023/08/22 10:21:42;;;;;;;2.43;1.97;;;33.00;55.90;;;;;;4917032;29;20898;-70
2023/08/22 10:24:19;;;;;;;3.13;1.63;;;33.20;55.80;;;;;;4916991;29;20907;-69
2023/08/22 10:26:58;;;;;;;3.37;1.57;;;33.30;55.40;;;;;;4918106;29;20436;-70
2023/08/22 10:29:24;;;;;;;2.20;1.60;;;33.40;55.60;;;;;;4917173;29;20524;-70
2023/08/22 10:32:24;;;;;;;3.07;1.53;;;33.20;53.90;;;;;;4917076;29;20473;-70
2023/08/22 10:35:27;;;;;;;3.03;1.87;;;33.20;54.40;;;;;;4877520;29;20487;-70
2023/08/22 10:37:56;;;;;;;2.50;1.43;;;33.20;55.80;;;;;;4877343;29;20423;-70
2023/08/22 10:40:31;;;;;;;4.80;1.50;;;33.30;54.70;;;;;;4904945;29;20500;-69
2023/08/22 10:43:14;;;;;;;1.70;1.20;;;33.50;54.40;;;;;;4917392;29;20444;-69
2023/08/22 10:45:48;;;;;;;2.43;1.70;;;33.60;55.20;;;;;;4917694;29;20452;-69
2023/08/22 10:48:17;;;;;;;2.20;1.73;;;33.80;54.00;;;;;;4917113;29;20510;-69
2023/08/22 10:50:45;;;;;;;2.70;1.67;;;33.90;54.20;;;;;;4916968;29;20476;-69
2023/08/22 10:53:24;;;;;;;2.00;1.33;;;33.90;52.90;;;;;;4917017;29;20449;-69
2023/08/22 10:55:51;;;;;;;1.90;1.60;;;33.80;52.90;;;;;;4917060;29;20440;-70
2023/08/22 10:58:38;;;;;;;2.70;1.63;;;33.70;53.60;;;;;;4916604;29;20472;-70
2023/08/22 11:01:08;;;;;;;1.90;1.60;;;33.60;54.50;;;;;;4916569;29;20856;-70
2023/08/22 11:03:35;;;;;;;2.03;1.50;;;33.70;53.20;;;;;;4917067;29;20476;-71
2023/08/22 11:06:01;;;;;;;2.00;1.50;;;33.60;53.10;;;;;;4917977;29;20846;-71
2023/08/22 11:08:29;;;;;;;2.80;1.90;;;33.70;54.30;;;;;;4916944;29;20511;-70
2023/08/22 11:10:58;;;;;;;2.37;1.67;;;33.90;54.50;;;;;;4916925;29;20468;-71
2023/08/22 11:13:37;;;;;;;3.20;2.13;;;34.10;53.70;;;;;;4916921;29;20531;-71
2023/08/22 11:16:05;;;;;;;1.90;1.40;;;34.30;53.80;;;;;;4917059;29;20519;-70
2023/08/22 11:18:32;;;;;;;3.50;1.90;;;34.60;53.40;;;;;;4916820;29;20444;-71
2023/08/22 11:20:59;;;;;;;2.20;1.57;;;34.50;53.70;;;;;;4916859;29;20476;-70
2023/08/22 11:23:26;;;;;;;1.90;1.50;;;34.30;53.70;;;;;;4916920;29;20456;-69
2023/08/22 11:25:54;;;;;;;2.80;2.00;;;34.20;53.70;;;;;;4919963;29;20448;-69
2023/08/22 11:28:30;;;;;;;3.10;2.00;;;34.10;54.10;;;;;;4920247;29;20496;-69
2023/08/22 11:30:57;;;;;;;2.20;1.80;;;34.20;53.80;;;;;;4920272;29;20507;-69
2023/08/22 11:33:23;;;;;;;3.07;1.70;;;34.20;54.40;;;;;;4919899;29;20946;-70
2023/08/22 11:35:51;;;;;;;2.17;1.70;;;33.80;54.50;;;;;;4920141;29;20476;-70
2023/08/22 11:38:19;;;;;;;3.27;1.70;;;34.00;54.90;;;;;;4919926;29;20480;-70
2023/08/22 11:40:46;;;;;;;3.70;1.90;;;34.10;55.00;;;;;;4920020;29;20491;-70
2023/08/22 11:43:15;;;;;;;2.70;1.80;;;34.10;54.90;;;;;;4920068;29;20452;-70
2023/08/22 11:45:46;;;;;;;2.67;1.80;;;34.10;55.20;;;;;;4920208;29;20452;-70
2023/08/22 11:48:15;;;;;;;2.83;1.70;;;34.00;54.50;;;;;;4919829;29;20523;-69
2023/08/22 11:50:43;;;;;;;4.33;2.30;;;33.80;55.40;;;;;;4919842;29;20555;-70
2023/08/22 11:53:11;;;;;;;2.20;1.80;;;33.90;55.20;;;;;;4919790;29;20456;-70
2023/08/22 11:55:40;;;;;;;2.10;1.90;;;33.90;56.20;;;;;;4919772;29;20452;-70
2023/08/22 11:58:10;;;;;;;2.00;1.70;;;34.00;56.60;;;;;;4919987;29;20536;-71
2023/08/22 12:00:39;;;;;;;2.13;1.80;;;34.10;56.40;;;;;;4919728;29;20858;-71
2023/08/22 12:03:06;;;;;;;2.30;1.63;;;34.30;54.30;;;;;;4919693;29;20437;-71
2023/08/22 12:05:34;;;;;;;2.90;1.77;;;34.10;55.30;;;;;;4919699;29;20503;-70
2023/08/22 12:08:16;;;;;;;2.17;1.97;;;33.80;55.60;;;;;;4919741;29;20484;-70
2023/08/22 12:10:44;;;;;;;3.13;2.00;;;33.80;56.60;;;;;;4919510;29;20469;-71
2023/08/22 12:13:12;;;;;;;2.40;1.80;;;33.90;55.90;;;;;;4919610;29;20479;-71
2023/08/22 12:15:41;;;;;;;2.50;1.97;;;34.00;55.00;;;;;;4919452;29;20448;-71
2023/08/22 12:18:09;;;;;;;2.40;1.90;;;34.20;55.20;;;;;;4919698;29;20444;-71
2023/08/22 12:20:37;;;;;;;2.13;1.77;;;34.20;55.40;;;;;;4918976;29;20848;-70
2023/08/22 12:23:04;;;;;;;3.50;2.10;;;34.30;55.70;;;;;;4919332;29;20449;-70
2023/08/22 12:25:31;;;;;;;2.97;2.20;;;34.10;55.10;;;;;;4919272;29;20451;-70
2023/08/22 12:27:58;;;;;;;3.10;2.13;;;34.30;54.70;;;;;;4918886;29;21005;-71
2023/08/22 12:30:24;;;;;;;2.40;1.90;;;34.50;54.40;;;;;;4918849;29;20453;-70
2023/08/22 12:32:52;;;;;;;2.10;1.63;;;34.50;54.70;;;;;;4919098;29;20459;-71
2023/08/22 12:35:19;;;;;;;3.03;2.30;;;34.90;55.40;;;;;;4918854;29;20507;-71
2023/08/22 12:37:46;;;;;;;2.77;2.00;;;35.30;53.40;;;;;;4919597;29;20550;-71
2023/08/22 12:40:15;;;;;;;2.10;1.70;;;35.10;53.10;;;;;;4919092;29;20495;-71
2023/08/22 12:42:42;;;;;;;2.30;1.50;;;35.00;54.00;;;;;;4918890;29;20483;-70
2023/08/22 12:45:10;;;;;;;2.50;1.80;;;34.90;54.20;;;;;;4918563;29;21002;-71
2023/08/22 12:47:37;;;;;;;2.50;1.70;;;35.00;54.50;;;;;;4918874;29;20494;-70
2023/08/22 12:50:06;;;;;;;2.13;1.53;;;35.30;53.80;;;;;;4918745;29;20562;-71
2023/08/22 12:52:33;;;;;;;2.33;1.90;;;35.70;52.20;;;;;;4919393;29;20472;-71
2023/08/22 12:55:00;;;;;;;1.80;1.60;;;35.90;51.60;;;;;;4918440;29;20883;-71
2023/08/22 12:57:27;;;;;;;3.23;1.90;;;36.10;52.00;;;;;;4918765;29;20535;-71
2023/08/22 12:59:54;;;;;;;3.47;1.73;;;35.90;50.30;;;;;;4918354;29;20960;-70
2023/08/22 13:02:23;;;;;;;2.87;1.70;;;35.90;50.50;;;;;;4918357;29;20991;-71
2023/08/22 13:04:49;;;;;;;2.40;2.10;;;36.00;52.20;;;;;;4919061;29;20451;-70
2023/08/22 13:07:17;;;;;;;2.50;2.00;;;36.20;51.30;;;;;;4918842;29;20567;-70
2023/08/22 13:09:46;;;;;;;2.20;2.00;;;36.20;51.80;;;;;;4918419;29;20496;-72
2023/08/22 13:12:12;;;;;;;2.60;1.53;;;36.30;50.70;;;;;;4918404;29;21032;-71
2023/08/22 13:14:39;;;;;;;2.00;1.70;;;36.00;51.00;;;;;;4918289;29;20460;-71
2023/08/22 13:17:06;;;;;;;3.00;2.67;;;35.40;52.30;;;;;;4918228;29;20467;-71
2023/08/22 13:19:32;;;;;;;3.30;1.90;;;35.30;52.20;;;;;;4918218;29;20452;-71
2023/08/22 13:21:59;;;;;;;2.20;1.70;;;35.30;52.40;;;;;;4918275;29;20475;-71
2023/08/22 13:24:27;;;;;;;2.20;1.90;;;35.50;52.90;;;;;;4918198;29;20527;-71
2023/08/22 13:26:54;;;;;;;2.17;1.87;;;35.80;51.70;;;;;;4918202;29;20459;-72
2023/08/22 13:29:20;;;;;;;2.10;1.90;;;36.00;50.20;;;;;;4918171;29;20510;-72
2023/08/22 13:31:47;;;;;;;2.53;1.97;;;36.00;49.70;;;;;;4918015;29;20479;-71
2023/08/22 13:34:14;;;;;;;3.80;1.87;;;35.60;50.50;;;;;;4918049;29;20503;-71
2023/08/22 13:36:40;;;;;;;2.80;1.73;;;35.30;51.20;;;;;;4918192;29;20448;-71
2023/08/22 13:39:07;;;;;;;2.60;1.90;;;35.20;51.60;;;;;;4917880;29;20452;-71
2023/08/22 13:41:35;;;;;;;1.97;1.60;;;35.10;52.60;;;;;;4918063;29;20468;-70
2023/08/22 13:44:02;;;;;;;3.20;1.70;;;35.10;53.10;;;;;;4917548;29;21017;-69
2023/08/22 13:46:29;;;;;;;2.20;1.83;;;35.30;53.20;;;;;;4917945;29;20448;-70
2023/08/22 13:48:56;;;;;;;3.63;1.77;;;35.60;51.70;;;;;;4917728;29;20548;-70
2023/08/22 13:51:23;;;;;;;5.20;2.00;;;35.60;51.10;;;;;;4917784;29;20471;-70
2023/08/22 13:53:49;;;;;;;2.63;2.10;;;35.60;51.70;;;;;;4917734;29;20444;-70
2023/08/22 13:56:16;;;;;;;2.87;1.73;;;35.50;51.40;;;;;;4917699;29;20508;-70
2023/08/22 13:58:44;;;;;;;2.50;1.73;;;35.30;51.30;;;;;;4917745;29;20482;-70
2023/08/22 14:01:11;;;;;;;4.17;1.80;;;35.20;51.80;;;;;;4917467;29;20483;-70
2023/08/22 14:03:38;;;;;;;3.30;1.57;;;35.20;52.40;;;;;;4917725;29;20488;-70
2023/08/22 14:06:04;;;;;;;2.83;1.90;;;34.80;54.00;;;;;;4917244;29;20453;-69
2023/08/22 14:08:31;;;;;;;2.00;1.63;;;34.60;54.40;;;;;;4917777;29;20449;-71
2023/08/22 14:10:58;;;;;;;2.50;1.70;;;34.50;54.50;;;;;;4917931;29;20524;-71
2023/08/22 14:13:24;;;;;;;3.30;1.90;;;34.40;54.90;;;;;;4917519;29;20452;-70
2023/08/22 14:15:52;;;;;;;4.07;2.00;;;34.30;55.70;;;;;;4917340;29;20580;-71
2023/08/22 14:18:19;;;;;;;1.90;1.60;;;34.40;55.50;;;;;;4917350;29;20803;-71
2023/08/22 14:20:46;;;;;;;2.10;1.77;;;34.80;55.30;;;;;;4917062;29;21053;-71
2023/08/22 14:23:14;;;;;;;2.30;1.60;;;35.10;54.40;;;;;;4917187;29;20939;-69
2023/08/22 14:25:41;;;;;;;3.10;1.77;;;35.30;53.90;;;;;;4917294;29;20444;-70
2023/08/22 14:28:08;;;;;;;2.83;1.63;;;35.40;52.70;;;;;;4917252;29;20448;-71
2023/08/22 14:30:35;;;;;;;5.70;2.53;;;35.50;53.50;;;;;;4917032;29;20507;-71
2023/08/22 14:33:03;;;;;;;4.13;1.97;;;35.60;52.70;;;;;;4916897;29;20875;-71
2023/08/22 14:35:30;;;;;;;2.40;2.10;;;35.60;53.10;;;;;;4917096;29;20448;-71
2023/08/22 14:37:57;;;;;;;2.73;1.80;;;35.60;53.90;;;;;;4917237;29;20456;-70
2023/08/22 14:40:23;;;;;;;2.60;1.90;;;35.90;53.60;;;;;;4917103;29;20503;-71
2023/08/22 14:42:50;;;;;;;2.07;1.60;;;36.20;52.60;;;;;;4916849;29;20934;-70
2023/08/22 14:45:17;;;;;;;3.00;2.10;;;36.20;52.20;;;;;;4917094;29;20452;-71
2023/08/22 14:47:43;;;;;;;2.17;1.90;;;36.40;52.30;;;;;;4916976;29;20498;-71
2023/08/22 14:50:11;;;;;;;2.90;2.07;;;36.70;52.40;;;;;;4916995;29;20487;-71
2023/08/22 14:52:38;;;;;;;1.97;1.60;;;37.10;50.70;;;;;;4916968;29;20480;-71
2023/08/22 14:55:06;;;;;;;2.40;1.50;;;37.30;50.30;;;;;;4916980;29;20460;-71
2023/08/22 14:57:33;;;;;;;2.47;1.70;;;37.70;50.80;;;;;;4916669;29;20507;-71
2023/08/22 14:59:59;;;;;;;2.70;1.53;;;38.20;49.10;;;;;;4918929;29;20476;-71
2023/08/22 15:02:26;;;;;;;2.57;1.60;;;38.80;49.00;;;;;;4920583;29;20488;-72
2023/08/22 15:04:52;;;;;;;1.90;1.40;;;39.40;47.00;;;;;;4920715;29;20444;-71
2023/08/22 15:07:20;;;;;;;2.58;1.67;;;40.20;45.90;;;;;;4920814;29;20260;-72
2023/08/22 15:09:47;;;;;;;1.88;1.33;;;40.90;44.90;;;;;;4920733;29;20231;-71
2023/08/22 15:12:14;;;;;;;2.85;1.73;;;40.90;44.20;;;;;;4920537;29;20603;-71
2023/08/22 15:14:41;;;;;;;3.65;1.80;;;41.30;43.50;;;;;;4920293;29;20260;-71
2023/08/22 15:17:07;;;;;;;2.13;1.63;;;41.60;44.10;;;;;;4920503;29;20211;-71
2023/08/22 15:19:34;;;;;;;2.22;1.88;;;42.10;43.20;;;;;;4920478;29;20259;-71
2023/08/22 15:22:01;;;;;;;2.97;1.88;;;42.30;42.40;;;;;;4920465;29;20287;-72
2023/08/22 15:24:29;;;;;;;2.47;1.77;;;42.10;42.60;;;;;;4921419;29;20216;-72
2023/08/22 15:27:01;;;;;;;2.35;1.88;;;41.20;43.50;;;;;;4920669;29;20212;-72
2023/08/22 15:29:29;;;;;;;2.63;2.10;;;40.70;44.70;;;;;;4920292;29;20224;-72
2023/08/22 15:31:55;;;;;;;2.10;1.58;;;40.70;44.80;;;;;;4919888;29;20236;-72
2023/08/22 15:34:24;;;;;;;1.90;1.70;;;40.90;45.00;;;;;;4920180;29;20200;-72
2023/08/22 15:36:51;;;;;;;2.60;1.60;;;41.20;44.30;;;;;;4920255;29;20238;-71
2023/08/22 15:39:18;;;;;;;2.20;1.67;;;41.50;43.70;;;;;;4920211;29;20616;-72
2023/08/22 15:41:46;;;;;;;2.28;1.50;;;41.40;43.80;;;;;;4920093;29;20608;-72
2023/08/22 15:44:12;;;;;;;3.60;2.10;;;41.40;43.30;;;;;;4919733;29;20700;-71
2023/08/22 15:46:39;;;;;;;1.70;1.58;;;40.50;44.60;;;;;;4919975;29;20583;-71
2023/08/22 15:49:06;;;;;;;2.20;1.77;;;39.60;46.00;;;;;;4919990;29;20571;-71
2023/08/22 15:51:32;;;;;;;3.10;1.90;;;38.50;47.90;;;;;;4919945;29;20535;-71
2023/08/22 15:53:59;;;;;;;2.07;1.70;;;37.40;50.10;;;;;;4919609;29;20451;-71
2023/08/22 15:56:26;;;;;;;2.67;1.50;;;36.70;50.80;;;;;;4919894;29;20455;-71
2023/08/22 15:58:54;;;;;;;2.40;1.80;;;36.40;51.40;;;;;;4919917;29;20452;-72
2023/08/22 16:01:21;;;;;;;2.77;1.80;;;36.10;52.10;;;;;;4919359;29;20496;-71
2023/08/22 16:03:48;;;;;;;2.70;1.70;;;35.70;53.30;;;;;;4919943;29;20448;-71
2023/08/22 16:06:14;;;;;;;2.37;1.60;;;35.40;53.50;;;;;;4919644;29;20451;-71
2023/08/22 16:08:41;;;;;;;2.80;1.87;;;35.00;53.80;;;;;;4919704;29;20500;-72
2023/08/22 16:11:08;;;;;;;3.07;1.93;;;34.70;54.40;;;;;;4917987;29;20921;-72
2023/08/22 16:13:34;;;;;;;2.33;1.67;;;34.40;54.70;;;;;;4919261;29;20989;-71
2023/08/22 16:16:02;;;;;;;2.73;2.20;;;34.30;55.60;;;;;;4919856;29;20947;-71
2023/08/22 16:18:29;;;;;;;3.53;2.10;;;34.10;55.70;;;;;;4919565;29;20477;-71
2023/08/22 16:20:56;;;;;;;2.23;1.80;;;33.80;56.30;;;;;;4919418;29;20464;-70
2023/08/22 16:23:23;;;;;;;2.10;1.47;;;33.70;56.40;;;;;;4919401;29;20476;-71
2023/08/22 16:25:50;;;;;;;2.20;1.60;;;33.60;56.50;;;;;;4919018;29;20872;-71
2023/08/22 16:28:17;;;;;;;3.13;2.13;;;33.40;56.70;;;;;;4919302;29;20448;-70
2023/08/22 16:30:43;;;;;;;2.37;1.83;;;33.20;57.20;;;;;;4919116;29;20492;-71
2023/08/22 16:33:11;;;;;;;3.27;2.10;;;33.00;57.70;;;;;;4919157;29;20500;-70
2023/08/22 16:35:38;;;;;;;2.27;1.80;;;33.00;57.90;;;;;;4919141;29;20456;-70
2023/08/22 16:38:05;;;;;;;2.23;1.60;;;32.90;57.80;;;;;;4918846;29;20528;-71
2023/08/22 16:40:31;;;;;;;2.90;1.83;;;32.80;58.10;;;;;;4919113;29;20441;-71
2023/08/22 16:42:58;;;;;;;2.20;1.80;;;32.80;58.20;;;;;;4919499;29;20500;-71
2023/08/22 16:45:25;;;;;;;2.50;1.80;;;32.80;58.00;;;;;;4918907;29;20456;-72
2023/08/22 16:47:51;;;;;;;2.80;2.03;;;32.70;58.10;;;;;;4918927;29;20453;-72
2023/08/22 16:50:19;;;;;;;2.70;1.73;;;32.70;58.70;;;;;;4918895;29;20488;-72
2023/08/22 16:52:46;;;;;;;2.47;1.63;;;32.80;58.70;;;;;;4919050;29;20315;-72